createdAt,value
2023-03-19T00:04:39.566Z,18.30
2023-03-19T00:09:44.683Z,20.80
2023-03-19T00:14:48.607Z,18.80
2023-03-19T00:19:52.446Z,20.30
2023-03-19T00:24:56.268Z,19.30
2023-03-19T00:30:00.757Z,17.70
2023-03-19T00:35:09.198Z,18.00
2023-03-19T00:40:13.990Z,20.50
2023-03-19T00:45:17.692Z,20.30
2023-03-19T00:50:22.193Z,18.40
2023-03-19T00:55:27.774Z,25.20
2023-03-19T01:00:31.604Z,19.20
2023-03-19T01:05:39.777Z,19.80
2023-03-19T01:10:46.194Z,19.00
2023-03-19T01:15:53.543Z,16.80
2023-03-19T01:21:00.134Z,17.50
2023-03-19T01:26:07.853Z,17.90
2023-03-19T01:31:12.824Z,20.00
2023-03-19T01:36:40.625Z,19.30
2023-03-19T01:41:46.201Z,18.00
2023-03-19T01:47:20.173Z,16.60
2023-03-19T01:52:47.482Z,21.40
2023-03-19T01:58:02.252Z,19.00
2023-03-19T02:03:22.513Z,19.80
2023-03-19T02:08:28.660Z,19.30
2023-03-19T02:13:32.560Z,18.90
2023-03-19T02:18:37.618Z,19.70
2023-03-19T02:24:12.446Z,17.90
2023-03-19T02:29:34.290Z,20.00
2023-03-19T02:34:41.456Z,19.20
2023-03-19T02:39:52.153Z,18.90
2023-03-19T02:44:58.210Z,19.20
2023-03-19T02:50:02.111Z,18.20
2023-03-19T02:55:08.298Z,20.90
2023-03-19T03:00:13.820Z,17.00
2023-03-19T03:05:18.055Z,17.60
2023-03-19T03:10:22.002Z,20.10
2023-03-19T03:15:27.063Z,17.80
2023-03-19T03:20:30.986Z,18.90
2023-03-19T03:25:36.645Z,18.70
2023-03-19T03:30:40.426Z,17.40
2023-03-19T03:35:44.928Z,17.80
2023-03-19T03:40:56.767Z,17.70
2023-03-19T03:46:02.778Z,17.70
2023-03-19T03:51:09.790Z,18.00
2023-03-19T03:56:14.387Z,18.20
2023-03-19T04:01:19.254Z,17.90
2023-03-19T04:06:27.054Z,18.60
2023-03-19T04:11:57.679Z,18.70
2023-03-19T04:17:02.541Z,17.10
2023-03-19T04:22:08.231Z,18.00
2023-03-19T04:27:13.237Z,16.80
2023-03-19T04:32:19.168Z,16.60
2023-03-19T04:37:25.064Z,16.20
2023-03-19T04:42:30.385Z,17.10
2023-03-19T04:47:45.782Z,20.40
2023-03-19T04:52:49.997Z,21.00
2023-03-19T04:57:54.945Z,24.50
2023-03-19T05:03:01.195Z,21.20
2023-03-19T05:08:07.833Z,21.70
2023-03-19T05:13:13.725Z,15.50
2023-03-19T05:18:23.384Z,16.00
2023-03-19T05:23:29.168Z,15.10
2023-03-19T05:28:40.464Z,14.80
2023-03-19T05:33:44.644Z,14.70
2023-03-19T05:38:49.021Z,15.30
2023-03-19T05:43:58.927Z,21.80
2023-03-19T05:49:18.806Z,16.40
2023-03-19T05:54:23.142Z,15.60
2023-03-19T05:59:43.002Z,14.70
2023-03-19T06:05:12.781Z,14.90
2023-03-19T06:10:16.877Z,16.20
2023-03-19T06:15:33.193Z,14.30
2023-03-19T06:20:53.389Z,14.70
2023-03-19T06:25:57.275Z,13.50
2023-03-19T06:31:03.160Z,13.70
2023-03-19T06:36:26.837Z,13.80
2023-03-19T06:41:31.151Z,14.70
2023-03-19T06:46:43.168Z,16.20
2023-03-19T06:51:47.926Z,17.00
2023-03-19T06:56:52.519Z,12.80
2023-03-19T07:01:56.553Z,13.50
2023-03-19T07:07:00.334Z,13.30
2023-03-19T07:12:05.720Z,11.90
2023-03-19T07:17:11.804Z,13.50
2023-03-19T07:22:16.512Z,12.40
2023-03-19T07:27:21.661Z,11.90
2023-03-19T07:32:26.338Z,12.30
2023-03-19T07:37:30.135Z,12.10
2023-03-19T07:42:34.479Z,12.50
2023-03-19T07:47:38.404Z,12.40
2023-03-19T07:52:42.322Z,11.70
2023-03-19T07:57:46.030Z,12.90
2023-03-19T08:02:49.965Z,11.60
2023-03-19T08:07:53.611Z,12.70
2023-03-19T08:12:57.460Z,12.00
2023-03-19T08:18:04.273Z,11.70
2023-03-19T08:23:08.885Z,12.20
2023-03-19T08:28:12.780Z,11.40
2023-03-19T08:33:17.069Z,12.20
2023-03-19T08:38:20.993Z,11.80
2023-03-19T08:43:25.658Z,11.80
2023-03-19T08:48:31.041Z,10.70
2023-03-19T08:53:34.856Z,10.10
2023-03-19T08:58:40.463Z,9.70
2023-03-19T09:03:45.635Z,10.70
2023-03-19T09:08:49.375Z,10.20
2023-03-19T09:13:53.307Z,10.10
2023-03-19T09:18:59.322Z,10.10
2023-03-19T09:24:04.130Z,8.70
2023-03-19T09:29:08.135Z,9.50
2023-03-19T09:34:14.146Z,9.20
2023-03-19T09:39:17.826Z,10.00
2023-03-19T09:44:31.036Z,9.90
2023-03-19T09:49:39.706Z,10.20
2023-03-19T09:54:48.670Z,8.90
2023-03-19T09:59:53.548Z,9.20
2023-03-19T10:05:09.611Z,8.50
2023-03-19T10:10:27.301Z,8.20
2023-03-19T10:15:37.331Z,7.70
2023-03-19T10:20:44.221Z,7.70
2023-03-19T10:25:48.284Z,8.10
2023-03-19T10:31:17.949Z,8.40
2023-03-19T10:36:22.845Z,8.40
2023-03-19T10:41:44.736Z,9.20
2023-03-19T10:46:48.494Z,9.40
2023-03-19T10:51:52.966Z,7.70
2023-03-19T10:56:59.441Z,8.50
2023-03-19T11:02:19.683Z,8.20
2023-03-19T11:07:25.785Z,10.40
2023-03-19T11:12:34.439Z,6.60
2023-03-19T11:17:59.825Z,6.60
2023-03-19T11:23:09.678Z,6.70
2023-03-19T11:28:21.542Z,7.40
2023-03-19T11:34:03.583Z,7.40
2023-03-19T11:39:19.104Z,7.80
2023-03-19T11:44:34.272Z,7.00
2023-03-19T11:49:40.719Z,8.30
2023-03-19T11:55:13.322Z,8.00
2023-03-19T12:00:44.047Z,8.50
2023-03-19T12:05:57.479Z,8.00
2023-03-19T12:11:17.858Z,8.60
2023-03-19T12:16:27.531Z,8.00
2023-03-19T12:21:50.940Z,7.50
2023-03-19T12:27:37.031Z,9.10
2023-03-19T12:33:07.651Z,8.60
2023-03-19T12:38:24.587Z,7.90
2023-03-19T12:43:33.270Z,8.10
2023-03-19T12:48:45.883Z,8.10
2023-03-19T12:54:16.274Z,7.80
2023-03-19T12:59:57.883Z,8.50
2023-03-19T13:05:27.435Z,7.60
2023-03-19T13:10:32.916Z,8.00
2023-03-19T13:15:41.696Z,7.60
2023-03-19T13:21:25.136Z,6.70
2023-03-19T13:26:29.469Z,6.70
2023-03-19T13:31:38.768Z,7.10
2023-03-19T13:36:43.163Z,7.30
2023-03-19T13:42:00.428Z,8.40
2023-03-19T13:47:29.182Z,7.90
2023-03-19T13:52:33.023Z,7.50
2023-03-19T13:57:40.263Z,6.00
2023-03-19T14:02:49.206Z,8.10
2023-03-19T14:07:56.852Z,7.40
2023-03-19T14:13:15.191Z,7.90
2023-03-19T14:18:22.420Z,7.90
2023-03-19T14:23:39.674Z,8.00
2023-03-19T14:28:47.143Z,7.80
2023-03-19T14:34:14.385Z,7.90
2023-03-19T14:39:23.262Z,8.20
2023-03-19T14:44:38.335Z,7.80
2023-03-19T14:50:12.226Z,8.60
2023-03-19T14:55:20.775Z,8.20
2023-03-19T15:00:26.335Z,7.80
2023-03-19T15:05:39.276Z,8.30
2023-03-19T15:10:52.991Z,8.10
2023-03-19T15:16:21.702Z,7.90
2023-03-19T15:21:30.967Z,7.80
2023-03-19T15:26:36.930Z,7.60
2023-03-19T15:31:52.877Z,7.60
2023-03-19T15:37:12.657Z,8.00
2023-03-19T15:42:26.971Z,8.10
2023-03-19T15:47:38.012Z,7.90
2023-03-19T15:52:48.720Z,8.00
2023-03-19T15:57:58.276Z,8.50
2023-03-19T16:03:08.088Z,8.90
2023-03-19T16:08:23.543Z,10.70
2023-03-19T16:13:32.800Z,12.70
2023-03-19T16:19:01.579Z,10.80
2023-03-19T16:24:37.006Z,11.70
2023-03-19T17:20:29.800Z,19.90
2023-03-19T17:25:37.008Z,27.40
2023-03-19T17:30:47.144Z,28.50
2023-03-19T17:35:56.018Z,29.20
2023-03-19T17:41:09.481Z,23.60
2023-03-19T17:46:25.119Z,30.40
2023-03-19T17:51:38.640Z,14.30
2023-03-19T17:56:45.806Z,13.40
2023-03-19T18:02:00.507Z,27.00
2023-03-19T18:07:14.413Z,84.90
2023-03-19T18:12:27.396Z,36.20
2023-03-19T18:22:58.395Z,28.70
2023-03-19T18:28:08.452Z,27.70
2023-03-19T18:33:26.875Z,31.20
2023-03-19T18:38:43.496Z,28.10
2023-03-19T18:43:51.317Z,29.40
2023-03-19T18:49:27.383Z,31.10
2023-03-19T18:54:41.130Z,31.70
2023-03-19T18:59:47.666Z,31.00
2023-03-19T19:04:57.467Z,35.20
2023-03-19T19:10:11.784Z,30.60
2023-03-19T19:15:41.012Z,34.70
2023-03-19T19:20:56.219Z,72.70
2023-03-19T19:26:06.008Z,66.30
2023-03-19T19:31:25.639Z,62.90
2023-03-19T19:36:32.382Z,72.10
2023-03-19T19:41:46.213Z,39.90
2023-03-19T19:46:58.101Z,40.10
2023-03-19T19:52:10.542Z,39.80
2023-03-19T19:57:20.146Z,32.40
2023-03-19T20:02:30.046Z,53.50
2023-03-19T20:07:37.293Z,21.50
2023-03-19T20:12:55.475Z,25.70
2023-03-19T20:18:06.941Z,21.80
2023-03-19T20:23:16.399Z,29.90
2023-03-19T20:28:29.233Z,27.90
2023-03-19T20:33:39.117Z,33.50
2023-03-19T20:38:48.452Z,36.60
2023-03-19T20:43:55.495Z,44.70
2023-03-19T20:49:10.373Z,51.90
2023-03-19T20:54:20.107Z,46.90
2023-03-19T20:59:30.505Z,46.30
2023-03-19T21:04:40.829Z,33.00
2023-03-19T21:09:47.419Z,29.30
2023-03-19T21:14:57.248Z,30.10
2023-03-19T21:20:05.261Z,33.20
2023-03-19T21:25:25.491Z,37.30
2023-03-19T21:30:31.839Z,34.60
2023-03-19T21:35:39.893Z,31.80
2023-03-19T21:40:45.596Z,46.00
2023-03-19T21:45:53.516Z,50.40
2023-03-19T21:50:58.684Z,45.30
2023-03-19T21:56:09.196Z,45.70
2023-03-19T22:01:19.916Z,43.30
2023-03-19T22:06:24.698Z,42.30
2023-03-19T22:11:32.255Z,38.10
2023-03-19T22:16:36.507Z,40.10
2023-03-19T22:21:40.352Z,34.90
2023-03-19T22:26:46.815Z,37.20
2023-03-19T22:31:51.879Z,37.90
2023-03-19T22:36:57.280Z,39.00
2023-03-19T22:42:01.133Z,41.10
2023-03-19T22:47:05.059Z,39.10
2023-03-19T22:52:10.662Z,42.00
2023-03-19T22:57:17.751Z,47.70
2023-03-19T23:02:21.450Z,48.70
2023-03-19T23:07:25.199Z,46.60
2023-03-19T23:12:29.065Z,47.00
2023-03-19T23:17:36.198Z,49.20
2023-03-19T23:22:40.032Z,48.20
2023-03-19T23:27:45.746Z,45.20
2023-03-19T23:32:50.033Z,47.80
2023-03-19T23:37:56.926Z,49.90
2023-03-19T23:43:04.810Z,48.90
2023-03-19T23:48:15.857Z,50.90
2023-03-19T23:53:22.357Z,51.40
2023-03-19T23:58:43.337Z,48.60
